createdAt,value
2023-03-31T00:00:51.655Z,10.66
2023-03-31T00:01:51.586Z,10.59
2023-03-31T00:02:51.654Z,10.60
2023-03-31T00:03:51.670Z,10.45
2023-03-31T00:04:51.571Z,10.56
2023-03-31T00:05:51.522Z,10.56
2023-03-31T00:06:51.504Z,10.41
2023-03-31T00:07:51.501Z,10.59
2023-03-31T00:08:52.393Z,10.51
2023-03-31T00:09:51.473Z,10.45
2023-03-31T00:10:51.441Z,10.51
2023-03-31T00:11:51.426Z,10.40
2023-03-31T00:12:51.421Z,10.38
2023-03-31T00:13:51.436Z,10.40
2023-03-31T00:14:51.404Z,10.40
2023-03-31T00:15:52.842Z,10.36
2023-03-31T00:16:51.395Z,10.32
2023-03-31T00:17:51.400Z,10.33
2023-03-31T00:18:51.508Z,10.33
2023-03-31T00:19:51.302Z,10.29
2023-03-31T00:20:51.288Z,10.30
2023-03-31T00:21:51.301Z,10.20
2023-03-31T00:22:51.249Z,10.26
2023-03-31T00:23:51.235Z,10.20
2023-03-31T00:24:51.227Z,10.12
2023-03-31T00:25:51.202Z,10.08
2023-03-31T00:26:51.213Z,10.09
2023-03-31T00:27:51.312Z,10.08
2023-03-31T00:28:51.154Z,9.99
2023-03-31T00:29:51.178Z,10.01
2023-03-31T00:30:51.118Z,10.01
2023-03-31T00:31:51.114Z,9.99
2023-03-31T00:32:51.173Z,9.99
2023-03-31T00:33:51.134Z,10.02
2023-03-31T00:34:51.063Z,9.86
2023-03-31T00:35:51.073Z,9.93
2023-03-31T00:36:51.021Z,9.87
2023-03-31T00:37:51.004Z,9.84
2023-03-31T00:38:50.989Z,9.86
2023-03-31T00:39:50.979Z,9.89
2023-03-31T00:40:53.683Z,9.91
2023-03-31T00:41:50.994Z,9.83
2023-03-31T00:42:50.926Z,9.83
2023-03-31T00:43:50.921Z,9.81
2023-03-31T00:44:50.890Z,9.86
2023-03-31T00:45:50.971Z,9.75
2023-03-31T00:46:50.856Z,9.83
2023-03-31T00:47:50.888Z,9.83
2023-03-31T00:48:50.842Z,9.81
2023-03-31T00:49:50.816Z,9.71
2023-03-31T00:50:50.795Z,9.79
2023-03-31T00:51:51.322Z,9.84
2023-03-31T00:52:50.760Z,9.81
2023-03-31T00:53:50.752Z,9.84
2023-03-31T00:54:50.728Z,9.86
2023-03-31T00:55:50.711Z,9.87
2023-03-31T00:56:50.725Z,9.86
2023-03-31T00:57:50.721Z,9.86
2023-03-31T00:58:50.661Z,9.72
2023-03-31T00:59:50.648Z,9.84
2023-03-31T01:00:50.670Z,9.81
2023-03-31T01:01:50.676Z,9.68
2023-03-31T01:02:50.631Z,9.78
2023-03-31T01:03:50.740Z,9.74
2023-03-31T01:04:50.572Z,9.74
2023-03-31T01:05:50.549Z,9.72
2023-03-31T01:06:50.535Z,9.72
2023-03-31T01:07:50.521Z,9.69
2023-03-31T01:08:50.503Z,9.66
2023-03-31T01:09:50.518Z,9.74
2023-03-31T01:10:50.470Z,9.76
2023-03-31T01:11:50.457Z,9.69
2023-03-31T01:12:50.437Z,9.68
2023-03-31T01:13:50.458Z,9.74
2023-03-31T01:14:50.436Z,9.71
2023-03-31T01:15:50.390Z,9.69
2023-03-31T01:16:50.448Z,9.69
2023-03-31T01:17:50.544Z,9.74
2023-03-31T01:18:50.358Z,9.61
2023-03-31T01:19:50.355Z,9.64
2023-03-31T01:20:50.328Z,9.58
2023-03-31T01:21:50.296Z,9.64
2023-03-31T01:22:50.275Z,9.60
2023-03-31T01:23:50.262Z,9.56
2023-03-31T01:24:50.242Z,9.57
2023-03-31T01:25:50.307Z,9.51
2023-03-31T01:26:50.243Z,9.50
2023-03-31T01:27:50.196Z,9.51
2023-03-31T01:28:50.182Z,9.53
2023-03-31T01:29:50.165Z,9.35
2023-03-31T01:30:50.228Z,9.39
2023-03-31T01:31:50.155Z,9.39
2023-03-31T01:32:50.129Z,9.35
2023-03-31T01:33:50.099Z,9.39
2023-03-31T01:34:50.082Z,9.24
2023-03-31T01:35:50.104Z,9.20
2023-03-31T01:36:50.119Z,9.18
2023-03-31T01:37:50.031Z,9.18
2023-03-31T01:38:50.017Z,9.11
2023-03-31T01:39:50.000Z,9.05
2023-03-31T01:40:49.990Z,9.11
2023-03-31T01:41:49.968Z,9.10
2023-03-31T01:42:49.956Z,9.05
2023-03-31T01:43:49.938Z,9.02
2023-03-31T01:44:49.921Z,8.98
2023-03-31T01:45:49.903Z,9.04
2023-03-31T01:46:49.944Z,9.08
2023-03-31T01:47:49.932Z,9.10
2023-03-31T01:48:49.861Z,9.10
2023-03-31T01:49:49.854Z,9.10
2023-03-31T01:50:49.820Z,9.10
2023-03-31T01:51:49.867Z,9.05
2023-03-31T01:52:49.832Z,9.10
2023-03-31T01:53:49.775Z,9.11
2023-03-31T01:54:49.757Z,9.23
2023-03-31T01:55:49.737Z,9.15
2023-03-31T01:56:49.729Z,9.15
2023-03-31T01:57:49.705Z,9.18
2023-03-31T01:58:49.695Z,9.15
2023-03-31T01:59:49.674Z,9.08
2023-03-31T02:00:49.658Z,9.10
2023-03-31T02:01:49.658Z,9.15
2023-03-31T02:02:49.683Z,9.15
2023-03-31T02:03:49.767Z,9.21
2023-03-31T02:04:49.602Z,9.18
2023-03-31T02:05:49.589Z,9.20
2023-03-31T02:06:49.565Z,9.17
2023-03-31T02:07:49.544Z,9.15
2023-03-31T02:08:49.569Z,9.18
2023-03-31T02:09:49.513Z,9.13
2023-03-31T02:10:49.493Z,9.08
2023-03-31T02:11:49.480Z,9.08
2023-03-31T02:12:49.461Z,9.10
2023-03-31T02:13:49.476Z,9.08
2023-03-31T02:14:49.449Z,9.17
2023-03-31T02:15:49.426Z,9.05
2023-03-31T02:16:49.473Z,9.08
2023-03-31T02:17:49.385Z,9.18
2023-03-31T02:18:49.359Z,9.18
2023-03-31T02:19:49.386Z,9.15
2023-03-31T02:20:49.337Z,9.20
2023-03-31T02:21:49.308Z,9.10
2023-03-31T02:22:49.294Z,9.10
2023-03-31T02:23:49.277Z,9.05
2023-03-31T02:24:49.268Z,9.05
2023-03-31T02:25:49.270Z,9.05
2023-03-31T02:26:49.227Z,9.13
2023-03-31T02:27:49.214Z,9.11
2023-03-31T02:28:49.207Z,9.10
2023-03-31T02:29:49.214Z,9.05
2023-03-31T02:30:49.176Z,9.10
2023-03-31T02:31:49.189Z,9.11
2023-03-31T02:32:49.148Z,9.02
2023-03-31T02:33:49.109Z,9.15
2023-03-31T02:34:51.670Z,9.11
2023-03-31T02:35:49.109Z,9.13
2023-03-31T02:36:49.070Z,9.02
2023-03-31T02:37:49.045Z,9.02
2023-03-31T02:38:49.039Z,9.04
2023-03-31T02:39:49.014Z,9.10
2023-03-31T02:40:49.004Z,9.02
2023-03-31T02:41:48.986Z,9.02
2023-03-31T02:42:48.962Z,9.04
2023-03-31T02:43:48.952Z,8.98
2023-03-31T02:44:48.975Z,9.02
2023-03-31T02:45:48.956Z,9.05
2023-03-31T02:46:48.897Z,9.02
2023-03-31T02:47:48.896Z,9.13
2023-03-31T02:48:48.863Z,9.08
2023-03-31T02:49:48.850Z,9.04
2023-03-31T02:50:48.857Z,9.11
2023-03-31T02:51:48.832Z,9.14
2023-03-31T02:52:48.798Z,9.13
2023-03-31T02:53:48.799Z,9.23
2023-03-31T02:54:48.767Z,9.21
2023-03-31T02:55:48.763Z,9.21
2023-03-31T02:56:48.766Z,9.08
2023-03-31T02:57:48.716Z,9.21
2023-03-31T02:58:48.709Z,9.17
2023-03-31T02:59:48.693Z,9.23
2023-03-31T03:00:48.787Z,9.24
2023-03-31T03:01:48.654Z,9.20
2023-03-31T03:02:48.779Z,9.20
2023-03-31T03:03:48.645Z,9.26
2023-03-31T03:04:48.603Z,9.33
2023-03-31T03:05:48.585Z,9.32
2023-03-31T03:06:48.572Z,9.43
2023-03-31T03:07:48.575Z,9.40
2023-03-31T03:08:48.590Z,9.38
2023-03-31T03:09:48.554Z,9.39
2023-03-31T03:10:48.503Z,9.36
2023-03-31T03:11:48.569Z,9.40
2023-03-31T03:12:48.493Z,9.38
2023-03-31T03:13:48.456Z,9.33
2023-03-31T03:14:48.538Z,9.39
2023-03-31T03:15:48.426Z,9.35
2023-03-31T03:16:48.481Z,9.35
2023-03-31T03:17:48.441Z,9.42
2023-03-31T03:18:48.374Z,9.42
2023-03-31T03:19:48.357Z,9.46
2023-03-31T03:20:48.356Z,9.48
2023-03-31T03:21:48.351Z,9.48
2023-03-31T03:22:48.312Z,9.48
2023-03-31T03:23:48.291Z,9.51
2023-03-31T03:24:48.331Z,9.51
2023-03-31T03:25:48.265Z,9.53
2023-03-31T03:26:48.261Z,9.58
2023-03-31T03:27:48.265Z,9.60
2023-03-31T03:28:48.214Z,9.68
2023-03-31T03:29:48.206Z,9.68
2023-03-31T03:30:48.206Z,9.65
2023-03-31T03:31:48.183Z,9.65
2023-03-31T03:32:48.276Z,9.68
2023-03-31T03:33:48.153Z,9.69
2023-03-31T03:34:48.127Z,9.71
2023-03-31T03:35:48.131Z,9.74
2023-03-31T03:36:48.077Z,9.66
2023-03-31T03:37:48.087Z,9.66
2023-03-31T03:38:48.102Z,9.69
2023-03-31T03:39:48.029Z,9.61
2023-03-31T03:40:50.035Z,9.61
2023-03-31T03:41:48.001Z,9.64
2023-03-31T03:42:47.985Z,9.68
2023-03-31T03:43:47.971Z,9.65
2023-03-31T03:44:47.961Z,9.65
2023-03-31T03:45:47.931Z,9.61
2023-03-31T03:46:48.036Z,9.64
2023-03-31T03:47:47.922Z,9.66
2023-03-31T03:48:47.883Z,9.56
2023-03-31T03:49:47.871Z,9.56
2023-03-31T03:50:47.871Z,9.48
2023-03-31T03:51:47.881Z,9.54
2023-03-31T03:52:47.822Z,9.50
2023-03-31T03:53:47.804Z,9.47
2023-03-31T03:54:47.786Z,9.48
2023-03-31T03:55:47.764Z,9.42
2023-03-31T03:56:47.790Z,9.36
2023-03-31T03:57:47.735Z,9.36
2023-03-31T03:58:47.718Z,9.35
2023-03-31T03:59:47.700Z,9.40
2023-03-31T04:00:47.686Z,9.36
2023-03-31T04:01:47.682Z,9.39
2023-03-31T04:02:47.721Z,9.39
2023-03-31T04:03:47.688Z,9.39
2023-03-31T04:04:47.627Z,9.38
2023-03-31T04:05:47.595Z,9.36
2023-03-31T04:06:47.629Z,9.38
2023-03-31T04:07:47.566Z,9.35
2023-03-31T04:08:47.572Z,9.35
2023-03-31T04:09:47.527Z,9.39
2023-03-31T04:10:47.516Z,9.36
2023-03-31T04:11:47.497Z,9.33
2023-03-31T04:12:47.522Z,9.36
2023-03-31T04:13:47.472Z,9.31
2023-03-31T04:14:47.443Z,9.29
2023-03-31T04:15:47.472Z,9.24
2023-03-31T04:16:47.468Z,9.31
2023-03-31T04:17:47.431Z,9.42
2023-03-31T04:18:47.402Z,9.36
2023-03-31T04:19:47.361Z,9.38
2023-03-31T04:20:47.348Z,9.35
2023-03-31T04:21:47.330Z,9.40
2023-03-31T04:22:47.318Z,9.38
2023-03-31T04:23:47.426Z,9.38
2023-03-31T04:24:47.278Z,9.33
2023-03-31T04:25:47.261Z,9.36
2023-03-31T04:26:47.244Z,9.36
2023-03-31T04:27:47.227Z,9.35
2023-03-31T04:28:47.238Z,9.38
2023-03-31T04:29:47.194Z,9.40
2023-03-31T04:30:47.175Z,9.43
2023-03-31T04:31:47.194Z,9.38
2023-03-31T04:32:47.205Z,9.42
2023-03-31T04:33:47.239Z,9.48
2023-03-31T04:34:47.111Z,9.47
2023-03-31T04:35:47.110Z,9.43
2023-03-31T04:36:47.606Z,9.48
2023-03-31T04:37:47.060Z,9.42
2023-03-31T04:38:47.076Z,9.38
2023-03-31T04:39:47.029Z,9.51
2023-03-31T04:40:47.011Z,9.40
2023-03-31T04:41:47.003Z,9.48
2023-03-31T04:42:46.977Z,9.51
2023-03-31T04:43:46.991Z,9.43
2023-03-31T04:44:46.944Z,9.35
2023-03-31T04:45:47.002Z,9.51
2023-03-31T04:46:46.915Z,9.35
2023-03-31T04:47:46.918Z,9.50
2023-03-31T04:48:46.886Z,9.39
2023-03-31T04:49:46.865Z,9.39
2023-03-31T04:50:46.856Z,9.47
2023-03-31T04:51:46.840Z,9.36
2023-03-31T04:52:46.813Z,9.36
2023-03-31T04:53:46.795Z,9.36
2023-03-31T04:54:46.809Z,9.35
2023-03-31T04:55:46.771Z,9.35
2023-03-31T04:56:46.794Z,9.42
2023-03-31T04:57:46.737Z,9.35
2023-03-31T04:58:54.416Z,9.36
2023-03-31T04:59:46.736Z,9.40
2023-03-31T05:00:46.692Z,9.42
2023-03-31T05:01:46.748Z,9.39
2023-03-31T05:02:46.690Z,9.46
2023-03-31T05:03:46.675Z,9.48
2023-03-31T05:04:46.623Z,9.57
2023-03-31T05:05:46.614Z,9.50
2023-03-31T05:06:46.586Z,9.48
2023-03-31T05:07:46.644Z,9.48
2023-03-31T05:08:46.557Z,9.43
2023-03-31T05:09:46.541Z,9.51
2023-03-31T05:10:46.524Z,9.47
2023-03-31T05:11:46.548Z,9.54
2023-03-31T05:12:46.489Z,9.50
2023-03-31T05:13:46.476Z,9.48
2023-03-31T05:14:46.456Z,9.54
2023-03-31T05:15:46.439Z,9.46
2023-03-31T05:16:46.461Z,9.57
2023-03-31T05:17:46.452Z,9.57
2023-03-31T05:18:46.452Z,9.57
2023-03-31T05:19:46.373Z,9.57
2023-03-31T05:20:46.369Z,9.56
2023-03-31T05:21:46.340Z,9.47
2023-03-31T05:22:46.354Z,9.56
2023-03-31T05:23:46.344Z,9.50
2023-03-31T05:24:46.289Z,9.56
2023-03-31T05:25:46.279Z,9.50
2023-03-31T05:26:46.305Z,9.58
2023-03-31T05:27:46.246Z,9.57
2023-03-31T05:28:46.227Z,9.53
2023-03-31T05:29:46.214Z,9.57
2023-03-31T05:30:46.200Z,9.58
2023-03-31T05:31:46.221Z,9.58
2023-03-31T05:32:46.233Z,9.61
2023-03-31T05:33:46.146Z,9.53
2023-03-31T05:34:46.133Z,9.64
2023-03-31T05:35:46.136Z,9.60
2023-03-31T05:36:46.105Z,9.60
2023-03-31T05:37:46.083Z,9.56
2023-03-31T05:38:46.065Z,9.56
2023-03-31T05:39:46.048Z,9.57
2023-03-31T05:40:46.112Z,9.58
2023-03-31T05:41:46.011Z,9.57
2023-03-31T05:42:46.012Z,9.48
2023-03-31T05:43:45.984Z,9.48
2023-03-31T05:44:45.964Z,9.51
2023-03-31T05:45:45.977Z,9.57
2023-03-31T05:46:46.047Z,9.61
2023-03-31T05:47:45.966Z,9.56
2023-03-31T05:48:45.944Z,9.54
2023-03-31T05:49:45.880Z,9.60
2023-03-31T05:50:45.884Z,9.61
2023-03-31T05:51:45.856Z,9.58
2023-03-31T05:52:45.854Z,9.60
2023-03-31T05:53:45.823Z,9.58
2023-03-31T05:54:45.833Z,9.61
2023-03-31T05:55:45.782Z,9.60
2023-03-31T05:56:45.784Z,9.64
2023-03-31T05:57:45.748Z,9.58
2023-03-31T05:58:46.009Z,9.60
2023-03-31T05:59:45.742Z,9.66
2023-03-31T06:00:45.704Z,9.64
2023-03-31T06:01:45.829Z,9.66
2023-03-31T06:02:45.754Z,9.66
2023-03-31T06:03:45.719Z,9.68
2023-03-31T06:04:45.632Z,9.69
2023-03-31T06:05:45.617Z,9.72
2023-03-31T06:06:45.675Z,9.74
2023-03-31T06:07:45.584Z,9.74
2023-03-31T06:08:45.590Z,9.78
2023-03-31T06:09:45.555Z,9.66
2023-03-31T06:10:45.537Z,9.74
2023-03-31T06:11:45.517Z,9.68
2023-03-31T06:12:45.502Z,9.72
2023-03-31T06:13:45.484Z,9.71
2023-03-31T06:14:45.472Z,9.69
2023-03-31T06:15:45.474Z,9.72
2023-03-31T06:16:45.435Z,9.72
2023-03-31T06:17:45.479Z,9.74
2023-03-31T06:18:45.461Z,9.68
2023-03-31T06:19:45.385Z,9.72
2023-03-31T06:20:45.369Z,9.69
2023-03-31T06:21:45.353Z,9.78
2023-03-31T06:22:45.356Z,9.74
2023-03-31T06:23:45.346Z,9.78
2023-03-31T06:24:45.341Z,9.74
2023-03-31T06:25:50.829Z,9.78
2023-03-31T06:26:45.273Z,9.81
2023-03-31T06:27:45.260Z,9.84
2023-03-31T06:28:45.280Z,9.89
2023-03-31T06:29:45.250Z,9.86
2023-03-31T06:30:45.205Z,9.86
2023-03-31T06:31:45.242Z,9.86
2023-03-31T06:32:45.209Z,9.83
2023-03-31T06:33:45.162Z,9.79
2023-03-31T06:34:45.167Z,9.84
2023-03-31T06:35:45.181Z,9.78
2023-03-31T06:36:45.106Z,9.83
2023-03-31T06:37:45.093Z,9.86
2023-03-31T06:38:45.080Z,9.78
2023-03-31T06:39:45.115Z,9.79
2023-03-31T06:40:45.074Z,9.81
2023-03-31T06:41:45.026Z,9.83
2023-03-31T06:42:45.035Z,9.86
2023-03-31T06:43:44.990Z,9.86
2023-03-31T06:44:44.974Z,9.81
2023-03-31T06:45:44.980Z,9.75
2023-03-31T06:46:44.982Z,9.79
2023-03-31T06:47:45.006Z,9.87
2023-03-31T06:48:44.907Z,9.87
2023-03-31T06:49:44.895Z,9.83
2023-03-31T06:50:44.935Z,9.87
2023-03-31T06:51:44.884Z,9.83
2023-03-31T06:52:44.855Z,9.86
2023-03-31T06:53:44.842Z,9.89
2023-03-31T06:54:44.832Z,9.86
2023-03-31T06:55:44.795Z,9.90
2023-03-31T06:56:44.853Z,9.93
2023-03-31T06:57:44.767Z,9.81
2023-03-31T06:58:44.768Z,9.84
2023-03-31T06:59:44.791Z,9.86
2023-03-31T07:00:44.718Z,9.78
2023-03-31T07:01:44.766Z,9.78
2023-03-31T07:02:44.782Z,9.86
2023-03-31T07:03:44.777Z,9.76
2023-03-31T07:04:44.667Z,9.84
2023-03-31T07:05:44.669Z,9.81
2023-03-31T07:06:44.646Z,9.86
2023-03-31T07:07:46.272Z,9.86
2023-03-31T07:08:44.582Z,9.84
2023-03-31T07:09:44.569Z,9.91
2023-03-31T07:10:44.553Z,9.84
2023-03-31T07:11:44.536Z,9.78
2023-03-31T07:12:44.532Z,9.84
2023-03-31T07:13:44.537Z,9.90
2023-03-31T07:14:44.487Z,9.81
2023-03-31T07:15:44.466Z,9.84
2023-03-31T07:16:44.527Z,9.81
2023-03-31T07:17:44.481Z,9.86
2023-03-31T07:18:44.424Z,9.86
2023-03-31T07:19:44.468Z,9.97
2023-03-31T07:20:44.392Z,9.91
2023-03-31T07:21:44.369Z,9.91
2023-03-31T07:22:44.362Z,9.94
2023-03-31T07:23:44.344Z,9.91
2023-03-31T07:24:44.324Z,9.94
2023-03-31T07:25:44.338Z,10.04
2023-03-31T07:26:44.324Z,9.93
2023-03-31T07:27:44.281Z,10.05
2023-03-31T07:28:44.272Z,9.97
2023-03-31T07:29:44.244Z,10.02
2023-03-31T07:30:44.236Z,10.04
2023-03-31T07:31:44.305Z,10.14
2023-03-31T07:32:44.247Z,10.08
2023-03-31T07:33:44.181Z,10.07
2023-03-31T07:34:44.162Z,10.07
2023-03-31T07:35:44.171Z,10.07
2023-03-31T07:36:44.204Z,10.07
2023-03-31T07:37:44.139Z,10.07
2023-03-31T07:38:44.101Z,10.08
2023-03-31T07:39:44.130Z,9.97
2023-03-31T07:40:44.068Z,10.07
2023-03-31T07:41:44.052Z,10.11
2023-03-31T07:42:44.462Z,10.15
2023-03-31T07:43:44.021Z,10.11
2023-03-31T07:44:44.009Z,10.15
2023-03-31T07:45:44.067Z,10.09
2023-03-31T07:46:44.063Z,10.20
2023-03-31T07:47:44.041Z,10.09
2023-03-31T07:48:43.979Z,10.17
2023-03-31T07:49:43.930Z,10.11
2023-03-31T07:50:43.937Z,10.09
2023-03-31T07:51:43.896Z,10.11
2023-03-31T07:52:46.204Z,10.14
2023-03-31T07:53:43.856Z,10.09
2023-03-31T07:54:43.843Z,10.09
2023-03-31T07:55:43.863Z,10.17
2023-03-31T07:56:43.826Z,10.22
2023-03-31T07:57:43.801Z,10.15
2023-03-31T07:58:43.797Z,10.26
2023-03-31T07:59:43.772Z,10.20
2023-03-31T08:00:43.764Z,10.25
2023-03-31T08:01:43.771Z,10.23
2023-03-31T08:02:43.796Z,10.17
2023-03-31T08:03:43.726Z,10.18
2023-03-31T08:04:43.696Z,10.27
2023-03-31T08:05:43.666Z,10.27
2023-03-31T08:06:43.681Z,10.23
2023-03-31T08:07:43.677Z,10.18
2023-03-31T08:08:43.624Z,10.26
2023-03-31T08:09:43.611Z,10.23
2023-03-31T08:10:43.648Z,10.29
2023-03-31T08:11:45.387Z,10.23
2023-03-31T08:12:43.552Z,10.15
2023-03-31T08:13:43.541Z,10.26
2023-03-31T08:14:43.527Z,10.26
2023-03-31T08:15:43.871Z,10.22
2023-03-31T08:16:43.532Z,10.25
2023-03-31T08:17:43.543Z,10.23
2023-03-31T08:18:43.468Z,10.26
2023-03-31T08:19:43.445Z,10.23
2023-03-31T08:20:43.430Z,10.15
2023-03-31T08:21:43.412Z,10.23
2023-03-31T08:22:43.431Z,10.14
2023-03-31T08:23:43.384Z,10.23
2023-03-31T08:24:43.393Z,10.14
2023-03-31T08:25:43.351Z,10.14
2023-03-31T08:26:43.347Z,10.11
2023-03-31T08:27:43.323Z,10.17
2023-03-31T08:28:43.305Z,10.08
2023-03-31T08:29:43.324Z,10.08
2023-03-31T08:30:43.270Z,10.14
2023-03-31T08:31:43.289Z,10.17
2023-03-31T08:32:43.309Z,10.15
2023-03-31T08:33:43.220Z,10.11
2023-03-31T08:34:43.246Z,10.14
2023-03-31T08:35:43.207Z,10.12
2023-03-31T08:36:43.205Z,10.22
2023-03-31T08:37:43.156Z,10.09
2023-03-31T08:38:43.146Z,10.12
2023-03-31T08:39:43.146Z,10.12
2023-03-31T08:40:43.109Z,10.22
2023-03-31T08:41:43.124Z,10.18
2023-03-31T08:42:43.081Z,10.23
2023-03-31T08:43:43.082Z,10.15
2023-03-31T08:44:43.049Z,10.17
2023-03-31T08:45:43.054Z,10.08
2023-03-31T08:46:43.060Z,10.18
2023-03-31T08:47:43.032Z,10.17
2023-03-31T08:48:42.991Z,10.14
2023-03-31T08:49:42.965Z,10.12
2023-03-31T08:50:42.957Z,10.20
2023-03-31T08:51:43.059Z,10.17
2023-03-31T08:52:42.950Z,10.26
2023-03-31T08:53:42.902Z,10.32
2023-03-31T08:54:42.887Z,10.32
2023-03-31T08:55:42.887Z,10.34
2023-03-31T08:56:42.864Z,10.30
2023-03-31T08:57:45.364Z,10.34
2023-03-31T08:58:42.832Z,10.32
2023-03-31T08:59:42.805Z,10.26
2023-03-31T09:00:42.804Z,10.23
2023-03-31T09:01:54.658Z,10.20
2023-03-31T09:02:42.916Z,10.18
2023-03-31T09:03:42.812Z,10.07
2023-03-31T09:04:42.747Z,10.02
2023-03-31T09:05:52.992Z,9.94
2023-03-31T09:06:42.698Z,10.01
2023-03-31T09:07:42.683Z,10.09
2023-03-31T09:08:42.674Z,10.12
2023-03-31T09:09:42.650Z,10.04
2023-03-31T09:10:42.641Z,10.11
2023-03-31T09:11:42.621Z,10.05
2023-03-31T09:12:42.666Z,10.08
2023-03-31T09:13:42.588Z,10.05
2023-03-31T09:14:42.587Z,10.09
2023-03-31T09:15:42.622Z,10.11
2023-03-31T09:16:42.566Z,10.07
2023-03-31T09:17:42.558Z,10.05
2023-03-31T09:18:42.537Z,9.99
2023-03-31T09:19:42.508Z,10.07
2023-03-31T09:20:42.489Z,10.04
2023-03-31T09:21:42.462Z,10.09
2023-03-31T09:22:42.468Z,10.07
2023-03-31T09:23:42.458Z,10.05
2023-03-31T09:24:42.418Z,10.08
2023-03-31T09:25:42.413Z,10.11
2023-03-31T09:26:42.385Z,10.15
2023-03-31T09:27:42.418Z,10.12
2023-03-31T09:28:42.381Z,10.09
2023-03-31T09:29:42.363Z,10.09
2023-03-31T09:30:42.328Z,10.14
2023-03-31T09:31:42.396Z,10.17
2023-03-31T09:32:42.301Z,10.08
2023-03-31T09:33:42.311Z,10.09
2023-03-31T09:34:42.259Z,10.12
2023-03-31T09:35:44.435Z,10.09
2023-03-31T09:36:42.237Z,10.09
2023-03-31T09:37:42.212Z,10.01
2023-03-31T09:38:42.223Z,10.05
2023-03-31T09:39:42.180Z,10.07
2023-03-31T09:40:42.206Z,9.99
2023-03-31T09:41:42.144Z,10.02
2023-03-31T09:42:42.151Z,9.97
2023-03-31T09:43:42.114Z,9.99
2023-03-31T09:44:42.096Z,9.96
2023-03-31T09:45:42.129Z,10.07
2023-03-31T09:46:42.084Z,10.05
2023-03-31T09:47:42.158Z,9.99
2023-03-31T09:48:42.060Z,10.04
2023-03-31T09:49:42.014Z,10.18
2023-03-31T09:50:42.001Z,10.22
2023-03-31T09:51:42.011Z,10.18
2023-03-31T09:52:42.030Z,10.25
2023-03-31T09:53:41.973Z,10.26
2023-03-31T09:54:41.939Z,10.25
2023-03-31T09:55:41.918Z,10.29
2023-03-31T09:56:41.922Z,10.29
2023-03-31T09:57:41.951Z,10.33
2023-03-31T09:58:41.895Z,10.36
2023-03-31T09:59:41.856Z,10.34
2023-03-31T10:00:41.897Z,10.33
2023-03-31T10:01:41.871Z,10.38
2023-03-31T10:02:41.878Z,10.33
2023-03-31T10:03:41.828Z,10.40
2023-03-31T10:04:41.785Z,10.30
2023-03-31T10:05:41.764Z,10.32
2023-03-31T10:06:41.788Z,10.27
2023-03-31T10:07:41.740Z,10.30
2023-03-31T10:08:41.729Z,10.30
2023-03-31T10:09:41.715Z,10.29
2023-03-31T10:10:41.687Z,10.26
2023-03-31T10:11:41.673Z,10.27
2023-03-31T10:12:41.683Z,10.27
2023-03-31T10:13:41.643Z,10.30
2023-03-31T10:14:41.624Z,10.18
2023-03-31T10:15:42.431Z,10.22
2023-03-31T10:16:41.619Z,10.14
2023-03-31T10:17:53.936Z,10.14
2023-03-31T10:18:41.595Z,10.12
2023-03-31T10:19:41.576Z,10.11
2023-03-31T10:20:41.529Z,10.05
2023-03-31T10:21:41.538Z,9.93
2023-03-31T10:22:41.497Z,9.96
2023-03-31T10:23:41.510Z,9.78
2023-03-31T10:24:41.512Z,9.93
2023-03-31T10:25:41.457Z,9.79
2023-03-31T10:26:41.466Z,9.79
2023-03-31T10:27:41.414Z,9.79
2023-03-31T10:28:41.410Z,9.66
2023-03-31T10:29:41.384Z,9.69
2023-03-31T10:30:41.364Z,9.72
2023-03-31T10:31:41.403Z,9.68
2023-03-31T10:32:41.412Z,9.68
2023-03-31T10:33:41.351Z,9.76
2023-03-31T10:34:41.298Z,9.69
2023-03-31T10:35:41.321Z,9.74
2023-03-31T10:36:41.265Z,9.68
2023-03-31T10:37:41.251Z,9.72
2023-03-31T10:38:41.259Z,9.75
2023-03-31T10:39:42.033Z,9.66
2023-03-31T10:40:41.270Z,9.71
2023-03-31T10:41:41.211Z,9.68
2023-03-31T10:42:41.162Z,9.71
2023-03-31T10:43:41.156Z,9.69
2023-03-31T10:44:41.136Z,9.75
2023-03-31T10:45:41.117Z,9.81
2023-03-31T10:46:41.206Z,9.86
2023-03-31T10:47:41.136Z,9.89
2023-03-31T10:48:41.065Z,9.86
2023-03-31T10:49:41.049Z,9.86
2023-03-31T10:50:41.037Z,9.91
2023-03-31T10:51:41.019Z,9.99
2023-03-31T10:52:41.009Z,9.99
2023-03-31T10:53:41.023Z,9.96
2023-03-31T10:54:40.973Z,9.96
2023-03-31T10:55:40.969Z,9.99
2023-03-31T10:56:40.959Z,10.07
2023-03-31T10:57:40.956Z,10.07
2023-03-31T10:58:41.287Z,10.18
2023-03-31T10:59:47.971Z,10.14
2023-03-31T11:00:40.880Z,10.11
2023-03-31T11:01:40.887Z,10.11
2023-03-31T11:02:40.912Z,10.01
2023-03-31T11:03:40.914Z,10.04
2023-03-31T11:04:40.844Z,9.97
2023-03-31T11:05:40.793Z,10.11
2023-03-31T11:06:40.777Z,9.93
2023-03-31T11:07:40.776Z,9.97
2023-03-31T11:08:40.749Z,9.93
2023-03-31T11:09:40.759Z,9.99
2023-03-31T11:10:40.744Z,9.94
2023-03-31T11:11:40.698Z,10.02
2023-03-31T11:12:40.713Z,9.96
2023-03-31T11:13:40.737Z,10.02
2023-03-31T11:14:40.660Z,9.93
2023-03-31T11:15:40.700Z,9.93
2023-03-31T11:16:40.762Z,9.97
2023-03-31T11:17:40.680Z,9.97
2023-03-31T11:18:40.587Z,9.96
2023-03-31T11:19:40.579Z,10.01
2023-03-31T11:20:40.603Z,10.02
2023-03-31T11:21:40.551Z,10.01
2023-03-31T11:22:40.524Z,9.91
2023-03-31T11:23:40.538Z,10.04
2023-03-31T11:24:40.493Z,9.99
2023-03-31T11:25:40.477Z,9.96
2023-03-31T11:26:40.500Z,9.94
2023-03-31T11:27:40.445Z,10.05
2023-03-31T11:28:40.429Z,9.93
2023-03-31T11:29:40.420Z,9.97
2023-03-31T11:30:40.522Z,9.97
2023-03-31T11:31:40.459Z,9.99
2023-03-31T11:32:40.389Z,10.08
2023-03-31T11:33:40.346Z,9.99
2023-03-31T11:34:40.322Z,9.97
2023-03-31T11:35:40.334Z,10.01
2023-03-31T11:36:40.298Z,9.97
2023-03-31T11:37:40.326Z,9.96
2023-03-31T11:38:40.268Z,10.01
2023-03-31T11:39:40.251Z,10.01
2023-03-31T11:40:40.233Z,10.08
2023-03-31T11:41:40.217Z,10.01
2023-03-31T11:42:40.201Z,10.02
2023-03-31T11:43:40.193Z,9.97
2023-03-31T11:44:40.210Z,10.04
2023-03-31T11:45:40.173Z,9.94
2023-03-31T11:46:40.218Z,9.99
2023-03-31T11:47:40.196Z,9.96
2023-03-31T11:48:40.141Z,9.93
2023-03-31T11:49:40.098Z,9.99
2023-03-31T11:50:40.218Z,9.96
2023-03-31T11:51:40.063Z,10.01
2023-03-31T11:52:40.040Z,9.93
2023-03-31T11:53:40.038Z,9.87
2023-03-31T11:54:40.012Z,9.96
2023-03-31T11:55:40.024Z,9.91
2023-03-31T11:56:39.976Z,9.91
2023-03-31T11:57:39.958Z,9.90
2023-03-31T11:58:39.952Z,9.81
2023-03-31T11:59:39.979Z,9.87
2023-03-31T12:00:39.947Z,9.96
2023-03-31T12:01:39.895Z,9.91
2023-03-31T12:02:39.894Z,9.97
2023-03-31T12:03:39.945Z,9.96
2023-03-31T12:04:39.860Z,9.94
2023-03-31T12:05:39.875Z,9.99
2023-03-31T12:06:39.818Z,10.12
2023-03-31T12:07:39.816Z,10.08
2023-03-31T12:08:39.816Z,10.15
2023-03-31T12:09:39.827Z,10.18
2023-03-31T12:10:39.748Z,10.25
2023-03-31T12:11:39.734Z,10.22
2023-03-31T12:12:39.720Z,10.29
2023-03-31T12:13:39.702Z,10.38
2023-03-31T12:14:39.686Z,10.40
2023-03-31T12:15:39.704Z,10.56
2023-03-31T12:16:39.786Z,10.53
2023-03-31T12:17:39.683Z,10.73
2023-03-31T12:18:39.622Z,10.86
2023-03-31T12:19:39.606Z,10.91
2023-03-31T12:20:39.595Z,11.04
2023-03-31T12:21:39.706Z,11.04
2023-03-31T12:22:39.568Z,11.18
2023-03-31T12:23:39.556Z,11.27
2023-03-31T12:24:39.532Z,11.32
2023-03-31T12:25:39.521Z,11.36
2023-03-31T12:26:39.501Z,11.40
2023-03-31T12:27:39.490Z,11.39
2023-03-31T12:28:39.467Z,11.58
2023-03-31T12:29:39.467Z,11.62
2023-03-31T12:30:39.444Z,11.83
2023-03-31T12:31:39.520Z,11.76
2023-03-31T12:32:39.448Z,11.85
2023-03-31T12:33:39.397Z,11.79
2023-03-31T12:34:39.384Z,11.86
2023-03-31T12:35:39.459Z,11.79
2023-03-31T12:36:39.366Z,11.64
2023-03-31T12:37:39.390Z,11.64
2023-03-31T12:38:39.322Z,11.73
2023-03-31T12:39:39.313Z,11.67
2023-03-31T12:40:39.318Z,11.60
2023-03-31T12:41:39.293Z,11.72
2023-03-31T12:42:39.301Z,11.80
2023-03-31T12:43:39.257Z,11.94
2023-03-31T12:44:39.236Z,12.09
2023-03-31T12:45:39.238Z,12.20
2023-03-31T12:46:39.244Z,12.29
2023-03-31T12:47:39.252Z,12.37
2023-03-31T12:48:39.218Z,12.46
2023-03-31T12:49:39.195Z,12.53
2023-03-31T12:50:39.158Z,12.45
2023-03-31T12:51:39.141Z,12.17
2023-03-31T12:52:39.154Z,12.20
2023-03-31T12:53:39.141Z,12.23
2023-03-31T12:54:39.108Z,12.31
2023-03-31T12:55:39.085Z,12.37
2023-03-31T12:56:39.071Z,12.46
2023-03-31T12:57:39.057Z,12.39
2023-03-31T12:58:39.079Z,12.42
2023-03-31T12:59:39.047Z,12.45
2023-03-31T13:00:39.026Z,12.53
2023-03-31T13:01:39.063Z,12.34
2023-03-31T13:02:39.066Z,12.35
2023-03-31T13:03:38.992Z,12.27
2023-03-31T13:04:39.024Z,12.27
2023-03-31T13:05:39.016Z,12.14
2023-03-31T13:06:39.070Z,12.05
2023-03-31T13:07:38.923Z,11.90
2023-03-31T13:08:38.905Z,11.82